sensor_id;sensor_type;location;lat;lon;timestamp;pressure;altitude;pressure_sealevel;temperature
74485;BMP280;62942;52.462;10.846;2023-06-04T00:00:03;101380;;;
74485;BMP280;62942;52.462;10.846;2023-06-04T00:01:03;101370;;;
74485;BMP280;62942;52.462;10.846;2023-06-04T00:02:13;101370;;;
74485;BMP280;62942;52.462;10.846;2023-06-04T00:03:23;101360;;;
74485;BMP280;62942;52.462;10.846;2023-06-04T00:04:24;101360;;;
74485;BMP280;62942;52.462;10.846;2023-06-04T00:05:33;101360;;;
74485;BMP280;62942;52.462;10.846;2023-06-04T00:06:33;101360;;;
74485;BMP280;62942;52.462;10.846;2023-06-04T00:07:43;101360;;;
74485;BMP280;62942;52.462;10.846;2023-06-04T00:08:53;101360;;;
74485;BMP280;62942;52.462;10.846;2023-06-04T00:10:03;101380;;;
74485;BMP280;62942;52.462;10.846;2023-06-04T00:11:13;101380;;;
74485;BMP280;62942;52.462;10.846;2023-06-04T00:12:23;101380;;;
74485;BMP280;62942;52.462;10.846;2023-06-04T00:13:33;101380;;;
74485;BMP280;62942;52.462;10.846;2023-06-04T00:14:33;101370;;;
74485;BMP280;62942;52.462;10.846;2023-06-04T00:15:33;101380;;;
74485;BMP280;62942;52.462;10.846;2023-06-04T00:16:43;101380;;;
74485;BMP280;62942;52.462;10.846;2023-06-04T00:17:53;101380;;;
74485;BMP280;62942;52.462;10.846;2023-06-04T00:19:03;101370;;;
74485;BMP280;62942;52.462;10.846;2023-06-04T00:20:03;101370;;;
74485;BMP280;62942;52.462;10.846;2023-06-04T00:21:03;101370;;;
74485;BMP280;62942;52.462;10.846;2023-06-04T00:22:13;101370;;;
74485;BMP280;62942;52.462;10.846;2023-06-04T00:23:23;101370;;;
74485;BMP280;62942;52.462;10.846;2023-06-04T00:24:23;101370;;;
74485;BMP280;62942;52.462;10.846;2023-06-04T00:25:33;101370;;;
74485;BMP280;62942;52.462;10.846;2023-06-04T00:26:43;101370;;;
74485;BMP280;62942;52.462;10.846;2023-06-04T00:27:53;101380;;;
74485;BMP280;62942;52.462;10.846;2023-06-04T00:29:03;101370;;;
74485;BMP280;62942;52.462;10.846;2023-06-04T00:30:13;101370;;;
74485;BMP280;62942;52.462;10.846;2023-06-04T00:31:23;101370;;;
74485;BMP280;62942;52.462;10.846;2023-06-04T00:32:33;101380;;;
74485;BMP280;62942;52.462;10.846;2023-06-04T00:33:43;101380;;;
74485;BMP280;62942;52.462;10.846;2023-06-04T00:34:48;101380;;;
74485;BMP280;62942;52.462;10.846;2023-06-04T00:35:43;101380;;;
74485;BMP280;62942;52.462;10.846;2023-06-04T00:36:53;101380;;;
74485;BMP280;62942;52.462;10.846;2023-06-04T00:38:03;101370;;;
74485;BMP280;62942;52.462;10.846;2023-06-04T00:39:13;101370;;;
74485;BMP280;62942;52.462;10.846;2023-06-04T00:41:23;101370;;;
74485;BMP280;62942;52.462;10.846;2023-06-04T00:42:33;101370;;;
74485;BMP280;62942;52.462;10.846;2023-06-04T00:43:33;101370;;;
74485;BMP280;62942;52.462;10.846;2023-06-04T00:44:43;101370;;;
74485;BMP280;62942;52.462;10.846;2023-06-04T00:45:53;101370;;;
74485;BMP280;62942;52.462;10.846;2023-06-04T00:46:53;101370;;;
74485;BMP280;62942;52.462;10.846;2023-06-04T00:48:03;101370;;;
74485;BMP280;62942;52.462;10.846;2023-06-04T00:50:13;101370;;;
74485;BMP280;62942;52.462;10.846;2023-06-04T00:51:13;101370;;;
74485;BMP280;62942;52.462;10.846;2023-06-04T00:52:23;101380;;;
74485;BMP280;62942;52.462;10.846;2023-06-04T00:53:33;101380;;;
74485;BMP280;62942;52.462;10.846;2023-06-04T00:54:43;101370;;;
74485;BMP280;62942;52.462;10.846;2023-06-04T00:55:53;101370;;;
74485;BMP280;62942;52.462;10.846;2023-06-04T00:57:03;101370;;;
74485;BMP280;62942;52.462;10.846;2023-06-04T00:58:03;101380;;;
74485;BMP280;62942;52.462;10.846;2023-06-04T00:59:13;101380;;;
74485;BMP280;62942;52.462;10.846;2023-06-04T01:00:13;101370;;;
74485;BMP280;62942;52.462;10.846;2023-06-04T01:01:26;101380;;;
74485;BMP280;62942;52.462;10.846;2023-06-04T01:02:33;101380;;;
74485;BMP280;62942;52.462;10.846;2023-06-04T01:03:45;101370;;;
74485;BMP280;62942;52.462;10.846;2023-06-04T01:04:44;101380;;;
74485;BMP280;62942;52.462;10.846;2023-06-04T01:05:43;101380;;;
74485;BMP280;62942;52.462;10.846;2023-06-04T01:06:53;101380;;;
74485;BMP280;62942;52.462;10.846;2023-06-04T01:08:03;101380;;;
74485;BMP280;62942;52.462;10.846;2023-06-04T01:09:03;101380;;;
74485;BMP280;62942;52.462;10.846;2023-06-04T01:10:13;101380;;;
74485;BMP280;62942;52.462;10.846;2023-06-04T01:11:13;101370;;;
74485;BMP280;62942;52.462;10.846;2023-06-04T01:12:13;101380;;;
74485;BMP280;62942;52.462;10.846;2023-06-04T01:13:23;101380;;;
74485;BMP280;62942;52.462;10.846;2023-06-04T01:14:33;101370;;;
74485;BMP280;62942;52.462;10.846;2023-06-04T01:15:43;101380;;;
74485;BMP280;62942;52.462;10.846;2023-06-04T01:16:45;101380;;;
74485;BMP280;62942;52.462;10.846;2023-06-04T01:17:44;101380;;;
74485;BMP280;62942;52.462;10.846;2023-06-04T01:18:53;101380;;;
74485;BMP280;62942;52.462;10.846;2023-06-04T01:20:07;101380;;;
74485;BMP280;62942;52.462;10.846;2023-06-04T01:21:04;101370;;;
74485;BMP280;62942;52.462;10.846;2023-06-04T01:22:15;101370;;;
74485;BMP280;62942;52.462;10.846;2023-06-04T01:23:14;101370;;;
74485;BMP280;62942;52.462;10.846;2023-06-04T01:24:23;101380;;;
74485;BMP280;62942;52.462;10.846;2023-06-04T01:25:24;101370;;;
74485;BMP280;62942;52.462;10.846;2023-06-04T01:26:33;101370;;;
74485;BMP280;62942;52.462;10.846;2023-06-04T01:27:33;101370;;;
74485;BMP280;62942;52.462;10.846;2023-06-04T01:28:43;101370;;;
74485;BMP280;62942;52.462;10.846;2023-06-04T01:29:43;101370;;;
74485;BMP280;62942;52.462;10.846;2023-06-04T01:30:53;101370;;;
74485;BMP280;62942;52.462;10.846;2023-06-04T01:31:53;101370;;;
74485;BMP280;62942;52.462;10.846;2023-06-04T01:32:53;101370;;;
74485;BMP280;62942;52.462;10.846;2023-06-04T01:34:03;101370;;;
74485;BMP280;62942;52.462;10.846;2023-06-04T01:35:06;101370;;;
74485;BMP280;62942;52.462;10.846;2023-06-04T01:36:13;101370;;;
74485;BMP280;62942;52.462;10.846;2023-06-04T01:37:13;101370;;;
74485;BMP280;62942;52.462;10.846;2023-06-04T01:38:23;101370;;;
74485;BMP280;62942;52.462;10.846;2023-06-04T01:39:23;101370;;;
74485;BMP280;62942;52.462;10.846;2023-06-04T01:40:33;101360;;;
74485;BMP280;62942;52.462;10.846;2023-06-04T01:41:43;101370;;;
74485;BMP280;62942;52.462;10.846;2023-06-04T01:42:53;101370;;;
74485;BMP280;62942;52.462;10.846;2023-06-04T01:44:03;101370;;;
74485;BMP280;62942;52.462;10.846;2023-06-04T01:45:03;101370;;;
74485;BMP280;62942;52.462;10.846;2023-06-04T01:46:03;101370;;;
74485;BMP280;62942;52.462;10.846;2023-06-04T01:47:14;101370;;;
74485;BMP280;62942;52.462;10.846;2023-06-04T01:48:23;101370;;;
74485;BMP280;62942;52.462;10.846;2023-06-04T01:49:23;101370;;;
74485;BMP280;62942;52.462;10.846;2023-06-04T01:50:33;101370;;;
74485;BMP280;62942;52.462;10.846;2023-06-04T01:51:43;101370;;;
74485;BMP280;62942;52.462;10.846;2023-06-04T01:52:53;101370;;;
74485;BMP280;62942;52.462;10.846;2023-06-04T01:54:03;101370;;;
74485;BMP280;62942;52.462;10.846;2023-06-04T01:55:14;101370;;;
74485;BMP280;62942;52.462;10.846;2023-06-04T01:56:23;101370;;;
74485;BMP280;62942;52.462;10.846;2023-06-04T01:57:23;101370;;;
74485;BMP280;62942;52.462;10.846;2023-06-04T01:58:33;101360;;;
74485;BMP280;62942;52.462;10.846;2023-06-04T01:59:33;101370;;;
74485;BMP280;62942;52.462;10.846;2023-06-04T02:00:43;101370;;;
74485;BMP280;62942;52.462;10.846;2023-06-04T02:01:53;101370;;;
74485;BMP280;62942;52.462;10.846;2023-06-04T02:03:03;101370;;;
74485;BMP280;62942;52.462;10.846;2023-06-04T02:04:03;101370;;;
74485;BMP280;62942;52.462;10.846;2023-06-04T02:05:13;101360;;;
74485;BMP280;62942;52.462;10.846;2023-06-04T02:06:23;101360;;;
74485;BMP280;62942;52.462;10.846;2023-06-04T02:07:33;101360;;;
74485;BMP280;62942;52.462;10.846;2023-06-04T02:08:43;101360;;;
74485;BMP280;62942;52.462;10.846;2023-06-04T02:09:43;101360;;;
74485;BMP280;62942;52.462;10.846;2023-06-04T02:10:53;101360;;;
74485;BMP280;62942;52.462;10.846;2023-06-04T02:12:03;101360;;;
74485;BMP280;62942;52.462;10.846;2023-06-04T02:13:03;101360;;;
74485;BMP280;62942;52.462;10.846;2023-06-04T02:14:13;101360;;;
74485;BMP280;62942;52.462;10.846;2023-06-04T02:15:23;101360;;;
74485;BMP280;62942;52.462;10.846;2023-06-04T02:16:23;101350;;;
74485;BMP280;62942;52.462;10.846;2023-06-04T02:17:33;101350;;;
74485;BMP280;62942;52.462;10.846;2023-06-04T02:18:43;101350;;;
74485;BMP280;62942;52.462;10.846;2023-06-04T02:19:53;101360;;;
74485;BMP280;62942;52.462;10.846;2023-06-04T02:20:53;101360;;;
74485;BMP280;62942;52.462;10.846;2023-06-04T02:22:03;101360;;;
74485;BMP280;62942;52.462;10.846;2023-06-04T02:23:14;101360;;;
74485;BMP280;62942;52.462;10.846;2023-06-04T02:24:23;101360;;;
74485;BMP280;62942;52.462;10.846;2023-06-04T02:25:33;101360;;;
74485;BMP280;62942;52.462;10.846;2023-06-04T02:26:33;101360;;;
74485;BMP280;62942;52.462;10.846;2023-06-04T02:27:43;101360;;;
74485;BMP280;62942;52.462;10.846;2023-06-04T02:28:53;101360;;;
74485;BMP280;62942;52.462;10.846;2023-06-04T02:29:53;101360;;;
74485;BMP280;62942;52.462;10.846;2023-06-04T02:31:03;101350;;;
74485;BMP280;62942;52.462;10.846;2023-06-04T02:32:03;101360;;;
74485;BMP280;62942;52.462;10.846;2023-06-04T02:33:13;101360;;;
74485;BMP280;62942;52.462;10.846;2023-06-04T02:34:23;101360;;;
74485;BMP280;62942;52.462;10.846;2023-06-04T02:35:33;101350;;;
74485;BMP280;62942;52.462;10.846;2023-06-04T02:36:43;101350;;;
74485;BMP280;62942;52.462;10.846;2023-06-04T02:37:43;101350;;;
74485;BMP280;62942;52.462;10.846;2023-06-04T02:38:53;101350;;;
74485;BMP280;62942;52.462;10.846;2023-06-04T02:39:53;101350;;;
74485;BMP280;62942;52.462;10.846;2023-06-04T02:41:03;101350;;;
74485;BMP280;62942;52.462;10.846;2023-06-04T02:42:13;101340;;;
74485;BMP280;62942;52.462;10.846;2023-06-04T02:43:23;101350;;;
74485;BMP280;62942;52.462;10.846;2023-06-04T02:44:23;101340;;;
74485;BMP280;62942;52.462;10.846;2023-06-04T02:45:23;101350;;;
74485;BMP280;62942;52.462;10.846;2023-06-04T02:46:33;101350;;;
74485;BMP280;62942;52.462;10.846;2023-06-04T02:47:43;101350;;;
74485;BMP280;62942;52.462;10.846;2023-06-04T02:48:53;101350;;;
74485;BMP280;62942;52.462;10.846;2023-06-04T02:50:03;101350;;;
74485;BMP280;62942;52.462;10.846;2023-06-04T02:51:13;101350;;;
74485;BMP280;62942;52.462;10.846;2023-06-04T02:52:23;101350;;;
74485;BMP280;62942;52.462;10.846;2023-06-04T02:53:33;101350;;;
74485;BMP280;62942;52.462;10.846;2023-06-04T02:54:43;101350;;;
74485;BMP280;62942;52.462;10.846;2023-06-04T02:55:53;101350;;;
74485;BMP280;62942;52.462;10.846;2023-06-04T02:57:03;101350;;;
74485;BMP280;62942;52.462;10.846;2023-06-04T02:58:13;101350;;;
74485;BMP280;62942;52.462;10.846;2023-06-04T02:59:23;101350;;;
74485;BMP280;62942;52.462;10.846;2023-06-04T03:00:23;101350;;;
74485;BMP280;62942;52.462;10.846;2023-06-04T03:01:23;101350;;;
74485;BMP280;62942;52.462;10.846;2023-06-04T03:02:33;101350;;;
74485;BMP280;62942;52.462;10.846;2023-06-04T03:03:43;101350;;;
74485;BMP280;62942;52.462;10.846;2023-06-04T03:04:43;101350;;;
74485;BMP280;62942;52.462;10.846;2023-06-04T03:05:53;101350;;;
74485;BMP280;62942;52.462;10.846;2023-06-04T03:06:53;101350;;;
74485;BMP280;62942;52.462;10.846;2023-06-04T03:08:03;101350;;;
74485;BMP280;62942;52.462;10.846;2023-06-04T03:09:03;101370;;;
74485;BMP280;62942;52.462;10.846;2023-06-04T03:10:13;101370;;;
74485;BMP280;62942;52.462;10.846;2023-06-04T03:11:23;101370;;;
74485;BMP280;62942;52.462;10.846;2023-06-04T03:12:23;101370;;;
74485;BMP280;62942;52.462;10.846;2023-06-04T03:13:33;101370;;;
74485;BMP280;62942;52.462;10.846;2023-06-04T03:14:33;101370;;;
74485;BMP280;62942;52.462;10.846;2023-06-04T03:15:43;101370;;;
74485;BMP280;62942;52.462;10.846;2023-06-04T03:16:53;101370;;;
74485;BMP280;62942;52.462;10.846;2023-06-04T03:18:03;101380;;;
74485;BMP280;62942;52.462;10.846;2023-06-04T03:19:03;101370;;;
74485;BMP280;62942;52.462;10.846;2023-06-04T03:20:13;101370;;;
74485;BMP280;62942;52.462;10.846;2023-06-04T03:21:13;101370;;;
74485;BMP280;62942;52.462;10.846;2023-06-04T03:22:23;101370;;;
74485;BMP280;62942;52.462;10.846;2023-06-04T03:23:23;101370;;;
74485;BMP280;62942;52.462;10.846;2023-06-04T03:24:33;101370;;;
74485;BMP280;62942;52.462;10.846;2023-06-04T03:25:33;101370;;;
74485;BMP280;62942;52.462;10.846;2023-06-04T03:26:43;101370;;;
74485;BMP280;62942;52.462;10.846;2023-06-04T03:27:53;101370;;;
74485;BMP280;62942;52.462;10.846;2023-06-04T03:29:03;101370;;;
74485;BMP280;62942;52.462;10.846;2023-06-04T03:30:13;101380;;;
74485;BMP280;62942;52.462;10.846;2023-06-04T03:31:23;101370;;;
74485;BMP280;62942;52.462;10.846;2023-06-04T03:32:23;101380;;;
74485;BMP280;62942;52.462;10.846;2023-06-04T03:33:23;101370;;;
74485;BMP280;62942;52.462;10.846;2023-06-04T03:34:33;101370;;;
74485;BMP280;62942;52.462;10.846;2023-06-04T03:35:43;101380;;;
74485;BMP280;62942;52.462;10.846;2023-06-04T03:36:55;101370;;;
74485;BMP280;62942;52.462;10.846;2023-06-04T03:37:53;101380;;;
74485;BMP280;62942;52.462;10.846;2023-06-04T03:39:03;101380;;;
74485;BMP280;62942;52.462;10.846;2023-06-04T03:40:13;101380;;;
74485;BMP280;62942;52.462;10.846;2023-06-04T03:41:13;101380;;;
74485;BMP280;62942;52.462;10.846;2023-06-04T03:42:23;101370;;;
74485;BMP280;62942;52.462;10.846;2023-06-04T03:43:23;101370;;;
74485;BMP280;62942;52.462;10.846;2023-06-04T03:44:23;101380;;;
74485;BMP280;62942;52.462;10.846;2023-06-04T03:45:33;101370;;;
74485;BMP280;62942;52.462;10.846;2023-06-04T03:46:33;101360;;;
74485;BMP280;62942;52.462;10.846;2023-06-04T03:47:43;101370;;;
74485;BMP280;62942;52.462;10.846;2023-06-04T03:48:53;101360;;;
74485;BMP280;62942;52.462;10.846;2023-06-04T03:50:03;101370;;;
74485;BMP280;62942;52.462;10.846;2023-06-04T03:51:13;101360;;;
74485;BMP280;62942;52.462;10.846;2023-06-04T03:52:23;101360;;;
74485;BMP280;62942;52.462;10.846;2023-06-04T03:53:33;101370;;;
74485;BMP280;62942;52.462;10.846;2023-06-04T03:54:43;101370;;;
74485;BMP280;62942;52.462;10.846;2023-06-04T03:55:53;101380;;;
74485;BMP280;62942;52.462;10.846;2023-06-04T03:57:03;101380;;;
74485;BMP280;62942;52.462;10.846;2023-06-04T03:58:13;101380;;;
74485;BMP280;62942;52.462;10.846;2023-06-04T03:59:23;101370;;;
74485;BMP280;62942;52.462;10.846;2023-06-04T04:00:33;101380;;;
74485;BMP280;62942;52.462;10.846;2023-06-04T04:01:43;101380;;;
74485;BMP280;62942;52.462;10.846;2023-06-04T04:02:43;101380;;;
74485;BMP280;62942;52.462;10.846;2023-06-04T04:03:43;101380;;;
74485;BMP280;62942;52.462;10.846;2023-06-04T04:04:53;101380;;;
74485;BMP280;62942;52.462;10.846;2023-06-04T04:06:03;101380;;;
74485;BMP280;62942;52.462;10.846;2023-06-04T04:07:13;101380;;;
74485;BMP280;62942;52.462;10.846;2023-06-04T04:08:23;101380;;;
74485;BMP280;62942;52.462;10.846;2023-06-04T04:09:23;101380;;;
74485;BMP280;62942;52.462;10.846;2023-06-04T04:10:33;101380;;;
74485;BMP280;62942;52.462;10.846;2023-06-04T04:11:43;101380;;;
74485;BMP280;62942;52.462;10.846;2023-06-04T04:12:53;101390;;;
74485;BMP280;62942;52.462;10.846;2023-06-04T04:13:53;101380;;;
74485;BMP280;62942;52.462;10.846;2023-06-04T04:15:03;101380;;;
74485;BMP280;62942;52.462;10.846;2023-06-04T04:16:03;101380;;;
74485;BMP280;62942;52.462;10.846;2023-06-04T04:17:13;101380;;;
74485;BMP280;62942;52.462;10.846;2023-06-04T04:18:23;101380;;;
74485;BMP280;62942;52.462;10.846;2023-06-04T04:19:33;101380;;;
74485;BMP280;62942;52.462;10.846;2023-06-04T04:20:43;101390;;;
74485;BMP280;62942;52.462;10.846;2023-06-04T04:21:53;101380;;;
74485;BMP280;62942;52.462;10.846;2023-06-04T04:22:53;101380;;;
74485;BMP280;62942;52.462;10.846;2023-06-04T04:23:53;101380;;;
74485;BMP280;62942;52.462;10.846;2023-06-04T04:25:03;101380;;;
74485;BMP280;62942;52.462;10.846;2023-06-04T04:26:13;101380;;;
74485;BMP280;62942;52.462;10.846;2023-06-04T04:27:13;101380;;;
74485;BMP280;62942;52.462;10.846;2023-06-04T04:28:13;101380;;;
74485;BMP280;62942;52.462;10.846;2023-06-04T04:29:23;101380;;;
74485;BMP280;62942;52.462;10.846;2023-06-04T04:30:23;101380;;;
74485;BMP280;62942;52.462;10.846;2023-06-04T04:31:33;101370;;;
74485;BMP280;62942;52.462;10.846;2023-06-04T04:32:43;101380;;;
74485;BMP280;62942;52.462;10.846;2023-06-04T04:33:43;101380;;;
74485;BMP280;62942;52.462;10.846;2023-06-04T04:34:53;101380;;;
74485;BMP280;62942;52.462;10.846;2023-06-04T04:36:03;101380;;;
74485;BMP280;62942;52.462;10.846;2023-06-04T04:37:13;101390;;;
74485;BMP280;62942;52.462;10.846;2023-06-04T04:38:13;101380;;;
74485;BMP280;62942;52.462;10.846;2023-06-04T04:39:23;101380;;;
74485;BMP280;62942;52.462;10.846;2023-06-04T04:40:33;101380;;;
74485;BMP280;62942;52.462;10.846;2023-06-04T04:41:33;101380;;;
74485;BMP280;62942;52.462;10.846;2023-06-04T04:42:43;101370;;;
74485;BMP280;62942;52.462;10.846;2023-06-04T04:43:53;101370;;;
74485;BMP280;62942;52.462;10.846;2023-06-04T04:45:03;101370;;;
74485;BMP280;62942;52.462;10.846;2023-06-04T04:46:03;101380;;;
74485;BMP280;62942;52.462;10.846;2023-06-04T04:47:03;101380;;;
74485;BMP280;62942;52.462;10.846;2023-06-04T04:48:13;101380;;;
74485;BMP280;62942;52.462;10.846;2023-06-04T04:49:23;101380;;;
74485;BMP280;62942;52.462;10.846;2023-06-04T04:50:23;101380;;;
74485;BMP280;62942;52.462;10.846;2023-06-04T04:51:33;101380;;;
74485;BMP280;62942;52.462;10.846;2023-06-04T04:52:43;101380;;;
74485;BMP280;62942;52.462;10.846;2023-06-04T04:53:53;101380;;;
74485;BMP280;62942;52.462;10.846;2023-06-04T04:55:03;101380;;;
74485;BMP280;62942;52.462;10.846;2023-06-04T04:56:03;101380;;;
74485;BMP280;62942;52.462;10.846;2023-06-04T04:57:13;101370;;;
74485;BMP280;62942;52.462;10.846;2023-06-04T04:58:13;101370;;;
74485;BMP280;62942;52.462;10.846;2023-06-04T04:59:13;101380;;;
74485;BMP280;62942;52.462;10.846;2023-06-04T05:00:23;101380;;;
74485;BMP280;62942;52.462;10.846;2023-06-04T05:01:23;101390;;;
74485;BMP280;62942;52.462;10.846;2023-06-04T05:02:23;101390;;;
74485;BMP280;62942;52.462;10.846;2023-06-04T05:03:33;101390;;;
74485;BMP280;62942;52.462;10.846;2023-06-04T05:04:43;101390;;;
74485;BMP280;62942;52.462;10.846;2023-06-04T05:05:53;101390;;;
74485;BMP280;62942;52.462;10.846;2023-06-04T05:06:53;101390;;;
74485;BMP280;62942;52.462;10.846;2023-06-04T05:08:03;101390;;;
74485;BMP280;62942;52.462;10.846;2023-06-04T05:09:13;101390;;;
74485;BMP280;62942;52.462;10.846;2023-06-04T05:10:23;101390;;;
74485;BMP280;62942;52.462;10.846;2023-06-04T05:11:33;101390;;;
74485;BMP280;62942;52.462;10.846;2023-06-04T05:12:50;101390;;;
74485;BMP280;62942;52.462;10.846;2023-06-04T05:13:43;101390;;;
74485;BMP280;62942;52.462;10.846;2023-06-04T05:14:53;101390;;;
74485;BMP280;62942;52.462;10.846;2023-06-04T05:16:03;101390;;;
74485;BMP280;62942;52.462;10.846;2023-06-04T05:17:13;101390;;;
74485;BMP280;62942;52.462;10.846;2023-06-04T05:18:13;101390;;;
74485;BMP280;62942;52.462;10.846;2023-06-04T05:19:13;101380;;;
74485;BMP280;62942;52.462;10.846;2023-06-04T05:20:23;101390;;;
74485;BMP280;62942;52.462;10.846;2023-06-04T05:21:33;101390;;;
74485;BMP280;62942;52.462;10.846;2023-06-04T05:22:43;101400;;;
74485;BMP280;62942;52.462;10.846;2023-06-04T05:23:43;101400;;;
74485;BMP280;62942;52.462;10.846;2023-06-04T05:24:53;101400;;;
74485;BMP280;62942;52.462;10.846;2023-06-04T05:25:53;101390;;;
74485;BMP280;62942;52.462;10.846;2023-06-04T05:27:03;101390;;;
74485;BMP280;62942;52.462;10.846;2023-06-04T05:28:03;101390;;;
74485;BMP280;62942;52.462;10.846;2023-06-04T05:29:03;101390;;;
74485;BMP280;62942;52.462;10.846;2023-06-04T05:30:13;101390;;;
74485;BMP280;62942;52.462;10.846;2023-06-04T05:31:13;101390;;;
74485;BMP280;62942;52.462;10.846;2023-06-04T05:32:23;101400;;;
74485;BMP280;62942;52.462;10.846;2023-06-04T05:33:33;101400;;;
74485;BMP280;62942;52.462;10.846;2023-06-04T05:34:43;101400;;;
74485;BMP280;62942;52.462;10.846;2023-06-04T05:35:43;101400;;;
74485;BMP280;62942;52.462;10.846;2023-06-04T05:36:53;101400;;;
74485;BMP280;62942;52.462;10.846;2023-06-04T05:38:03;101400;;;
74485;BMP280;62942;52.462;10.846;2023-06-04T05:39:13;101400;;;
74485;BMP280;62942;52.462;10.846;2023-06-04T05:40:23;101390;;;
74485;BMP280;62942;52.462;10.846;2023-06-04T05:41:23;101400;;;
74485;BMP280;62942;52.462;10.846;2023-06-04T05:42:33;101400;;;
74485;BMP280;62942;52.462;10.846;2023-06-04T05:43:33;101400;;;
74485;BMP280;62942;52.462;10.846;2023-06-04T05:44:43;101400;;;
74485;BMP280;62942;52.462;10.846;2023-06-04T05:45:43;101400;;;
74485;BMP280;62942;52.462;10.846;2023-06-04T05:46:53;101400;;;
74485;BMP280;62942;52.462;10.846;2023-06-04T05:47:53;101400;;;
74485;BMP280;62942;52.462;10.846;2023-06-04T05:49:03;101410;;;
74485;BMP280;62942;52.462;10.846;2023-06-04T05:50:13;101400;;;
74485;BMP280;62942;52.462;10.846;2023-06-04T05:51:23;101400;;;
74485;BMP280;62942;52.462;10.846;2023-06-04T05:52:23;101400;;;
74485;BMP280;62942;52.462;10.846;2023-06-04T05:53:23;101400;;;
74485;BMP280;62942;52.462;10.846;2023-06-04T05:54:33;101410;;;
74485;BMP280;62942;52.462;10.846;2023-06-04T05:55:43;101390;;;
74485;BMP280;62942;52.462;10.846;2023-06-04T05:56:43;101390;;;
74485;BMP280;62942;52.462;10.846;2023-06-04T05:57:43;101400;;;
74485;BMP280;62942;52.462;10.846;2023-06-04T05:58:53;101400;;;
74485;BMP280;62942;52.462;10.846;2023-06-04T06:00:03;101390;;;
74485;BMP280;62942;52.462;10.846;2023-06-04T06:01:13;101410;;;
74485;BMP280;62942;52.462;10.846;2023-06-04T06:02:13;101400;;;
74485;BMP280;62942;52.462;10.846;2023-06-04T06:03:23;101410;;;
74485;BMP280;62942;52.462;10.846;2023-06-04T06:04:23;101410;;;
74485;BMP280;62942;52.462;10.846;2023-06-04T06:05:33;101410;;;
74485;BMP280;62942;52.462;10.846;2023-06-04T06:06:43;101400;;;
74485;BMP280;62942;52.462;10.846;2023-06-04T06:07:53;101400;;;
74485;BMP280;62942;52.462;10.846;2023-06-04T06:09:03;101410;;;
74485;BMP280;62942;52.462;10.846;2023-06-04T06:10:03;101410;;;
74485;BMP280;62942;52.462;10.846;2023-06-04T06:11:13;101410;;;
74485;BMP280;62942;52.462;10.846;2023-06-04T06:12:23;101410;;;
74485;BMP280;62942;52.462;10.846;2023-06-04T06:13:23;101410;;;
74485;BMP280;62942;52.462;10.846;2023-06-04T06:14:23;101410;;;
74485;BMP280;62942;52.462;10.846;2023-06-04T06:15:23;101410;;;
74485;BMP280;62942;52.462;10.846;2023-06-04T06:16:23;101410;;;
74485;BMP280;62942;52.462;10.846;2023-06-04T06:17:33;101410;;;
74485;BMP280;62942;52.462;10.846;2023-06-04T06:18:33;101410;;;
74485;BMP280;62942;52.462;10.846;2023-06-04T06:19:43;101410;;;
74485;BMP280;62942;52.462;10.846;2023-06-04T06:20:53;101410;;;
74485;BMP280;62942;52.462;10.846;2023-06-04T06:22:03;101420;;;
74485;BMP280;62942;52.462;10.846;2023-06-04T06:23:13;101410;;;
74485;BMP280;62942;52.462;10.846;2023-06-04T06:24:23;101420;;;
74485;BMP280;62942;52.462;10.846;2023-06-04T06:25:33;101420;;;
74485;BMP280;62942;52.462;10.846;2023-06-04T06:26:42;101420;;;
74485;BMP280;62942;52.462;10.846;2023-06-04T06:27:43;101420;;;
74485;BMP280;62942;52.462;10.846;2023-06-04T06:28:43;101420;;;
74485;BMP280;62942;52.462;10.846;2023-06-04T06:29:53;101420;;;
74485;BMP280;62942;52.462;10.846;2023-06-04T06:31:03;101420;;;
74485;BMP280;62942;52.462;10.846;2023-06-04T06:32:03;101420;;;
74485;BMP280;62942;52.462;10.846;2023-06-04T06:33:03;101420;;;
74485;BMP280;62942;52.462;10.846;2023-06-04T06:34:13;101420;;;
74485;BMP280;62942;52.462;10.846;2023-06-04T06:35:23;101420;;;
74485;BMP280;62942;52.462;10.846;2023-06-04T06:36:32;101430;;;
74485;BMP280;62942;52.462;10.846;2023-06-04T06:37:33;101420;;;
74485;BMP280;62942;52.462;10.846;2023-06-04T06:38:33;101420;;;
74485;BMP280;62942;52.462;10.846;2023-06-04T06:39:42;101420;;;
74485;BMP280;62942;52.462;10.846;2023-06-04T06:40:42;101420;;;
74485;BMP280;62942;52.462;10.846;2023-06-04T06:41:43;101420;;;
74485;BMP280;62942;52.462;10.846;2023-06-04T06:42:52;101430;;;
74485;BMP280;62942;52.462;10.846;2023-06-04T06:43:53;101430;;;
74485;BMP280;62942;52.462;10.846;2023-06-04T06:45:03;101430;;;
74485;BMP280;62942;52.462;10.846;2023-06-04T06:46:12;101430;;;
74485;BMP280;62942;52.462;10.846;2023-06-04T06:47:23;101430;;;
74485;BMP280;62942;52.462;10.846;2023-06-04T06:48:32;101430;;;
74485;BMP280;62942;52.462;10.846;2023-06-04T06:49:33;101430;;;
74485;BMP280;62942;52.462;10.846;2023-06-04T06:50:42;101430;;;
74485;BMP280;62942;52.462;10.846;2023-06-04T06:51:42;101430;;;
74485;BMP280;62942;52.462;10.846;2023-06-04T06:52:43;101430;;;
74485;BMP280;62942;52.462;10.846;2023-06-04T06:53:52;101430;;;
74485;BMP280;62942;52.462;10.846;2023-06-04T06:54:52;101430;;;
74485;BMP280;62942;52.462;10.846;2023-06-04T06:56:02;101430;;;
74485;BMP280;62942;52.462;10.846;2023-06-04T06:57:03;101430;;;
74485;BMP280;62942;52.462;10.846;2023-06-04T06:58:12;101440;;;
74485;BMP280;62942;52.462;10.846;2023-06-04T06:59:13;101440;;;
74485;BMP280;62942;52.462;10.846;2023-06-04T07:00:23;101430;;;
74485;BMP280;62942;52.462;10.846;2023-06-04T07:01:32;101440;;;